Ridgway, Pennsylvania
Current Conditions -  °F | °C
As of 8:53 PM on Monday 24 Nov 2014 (Local Time) from KDUJ Reporting Station
Clear Clear  
Wind Chill: 50°   Ceiling: Unl
Heat Index: 50°   Visibility: 10mi
Dew Point: 39°   Wind: 15mph
Humidity: 66%   Direction: 260°W
Pressure: 29.66"   Gusts: NA
Location:  41.42°N, 78.73°W
Report Text: KDUJ 250153Z AUTO 26013KT 10SM CLR 10/04 A2966 RMK AO2 PK WND 25028/0114 SLP042 T01000039
Loading
Personal Weather Stations






























Interactive Weather Map New forecast layout! Learn more

10-Day Weather Forecast

Advertisements
Track Severe Weather on mobile